Time;durP1;ratioP1;P1;durP2;ratioP2;P2;SDS_P1;SDS_P2;PMS_P1;PMS_P2;Temp;Humidity;BMP_temperature;BMP_pressure;BME280_temperature;BME280_humidity;BME280_pressure;Samples;Min_cycle;Max_cycle;Signal;HPM_P1;HPM_P2
2024/03/31 00:00:11;;;;;;;8.57;3.40;;;;;;;;;;480709;28;1342;-70
2024/03/31 00:00:33;;;;;;;7.35;3.50;;;;;;;;;;480402;28;882;-70
2024/03/31 00:00:48;;;;;;;9.52;3.55;;;;;;;;;;481651;28;1076;-69
2024/03/31 00:01:05;;;;;;;9.63;3.37;;;;;;;;;;483140;28;994;-69
2024/03/31 00:01:20;;;;;;;9.80;3.50;;;;;;;;;;483728;28;1385;-70
2024/03/31 00:01:35;;;;;;;10.93;3.73;;;;;;;;;;484108;28;920;-69
2024/03/31 00:01:51;;;;;;;11.43;3.50;;;;;;;;;;484117;28;1073;-70
2024/03/31 00:02:06;;;;;;;9.13;3.57;;;;;;;;;;483394;28;1300;-69
2024/03/31 00:02:21;;;;;;;9.33;3.53;;;;;;;;;;483117;28;910;-69
2024/03/31 00:02:36;;;;;;;10.40;3.40;;;;;;;;;;481037;28;1177;-70
2024/03/31 00:02:52;;;;;;;10.93;3.63;;;;;;;;;;481284;28;1314;-69
2024/03/31 00:03:07;;;;;;;11.13;3.78;;;;;;;;;;482267;28;870;-69
2024/03/31 00:03:23;;;;;;;10.73;3.80;;;;;;;;;;480200;28;1218;-70
2024/03/31 00:03:39;;;;;;;8.97;3.53;;;;;;;;;;482388;28;1094;-69
2024/03/31 00:03:55;;;;;;;8.75;3.33;;;;;;;;;;481940;28;1890;-70
2024/03/31 00:04:10;;;;;;;9.97;3.60;;;;;;;;;;481593;28;1144;-69
2024/03/31 00:04:25;;;;;;;8.90;3.60;;;;;;;;;;479041;28;1251;-70
2024/03/31 00:04:41;;;;;;;8.57;3.60;;;;;;;;;;479551;28;929;-70
2024/03/31 00:04:56;;;;;;;8.67;3.67;;;;;;;;;;479714;28;1212;-70
2024/03/31 00:05:12;;;;;;;8.03;3.53;;;;;;;;;;479388;28;976;-70
2024/03/31 00:05:27;;;;;;;7.32;3.55;;;;;;;;;;479572;28;902;-70
2024/03/31 00:05:42;;;;;;;7.43;3.43;;;;;;;;;;481387;28;1056;-69
2024/03/31 00:05:57;;;;;;;8.68;3.50;;;;;;;;;;484276;28;953;-70
2024/03/31 00:06:13;;;;;;;12.73;3.90;;;;;;;;;;484247;28;1298;-70
2024/03/31 00:06:28;;;;;;;13.20;3.87;;;;;;;;;;485555;28;1322;-70
2024/03/31 00:06:46;;;;;;;10.07;3.60;;;;;;;;;;485981;28;1160;-70
2024/03/31 00:07:02;;;;;;;9.93;3.53;;;;;;;;;;483956;28;1352;-70
2024/03/31 00:07:18;;;;;;;13.32;3.53;;;;;;;;;;483094;28;1148;-70
2024/03/31 00:07:34;;;;;;;13.87;3.97;;;;;;;;;;484020;28;961;-70
2024/03/31 00:07:49;;;;;;;8.85;3.67;;;;;;;;;;482752;28;2305;-69
2024/03/31 00:08:05;;;;;;;8.50;3.30;;;;;;;;;;483233;28;965;-69
2024/03/31 00:08:21;;;;;;;9.75;3.47;;;;;;;;;;485856;28;905;-70
2024/03/31 00:08:36;;;;;;;10.70;3.50;;;;;;;;;;482758;28;1180;-70
2024/03/31 00:08:51;;;;;;;10.50;3.23;;;;;;;;;;483901;28;1109;-69
2024/03/31 00:09:06;;;;;;;9.27;3.00;;;;;;;;;;485027;28;948;-70
2024/03/31 00:09:22;;;;;;;8.87;3.10;;;;;;;;;;482922;28;1098;-69
2024/03/31 00:09:37;;;;;;;9.23;3.30;;;;;;;;;;482661;28;993;-69
2024/03/31 00:09:52;;;;;;;10.73;3.33;;;;;;;;;;482718;28;1021;-69
2024/03/31 00:10:09;;;;;;;9.97;3.60;;;;;;;;;;482921;28;1065;-69
2024/03/31 00:10:24;;;;;;;7.72;3.50;;;;;;;;;;481152;28;1299;-69
2024/03/31 00:10:40;;;;;;;8.03;3.50;;;;;;;;;;481694;28;1042;-70
2024/03/31 00:11:11;;;;;;;9.00;3.80;;;;;;;;;;482287;28;1234;-69
2024/03/31 00:11:26;;;;;;;10.45;3.40;;;;;;;;;;486050;28;909;-69
2024/03/31 00:11:42;;;;;;;9.73;3.20;;;;;;;;;;484944;28;858;-69
2024/03/31 00:11:57;;;;;;;10.17;3.27;;;;;;;;;;483435;28;1022;-69
2024/03/31 00:12:12;;;;;;;10.15;3.15;;;;;;;;;;482692;28;1137;-69
2024/03/31 00:12:29;;;;;;;9.87;3.20;;;;;;;;;;482653;28;1111;-70
2024/03/31 00:12:44;;;;;;;10.13;3.50;;;;;;;;;;482726;28;1227;-70
2024/03/31 00:13:00;;;;;;;9.73;3.42;;;;;;;;;;482043;28;954;-69
2024/03/31 00:13:15;;;;;;;8.67;3.20;;;;;;;;;;482494;28;1132;-70
2024/03/31 00:13:30;;;;;;;9.48;3.38;;;;;;;;;;481822;28;956;-69
2024/03/31 00:13:46;;;;;;;10.90;3.53;;;;;;;;;;482250;28;1021;-69
2024/03/31 00:14:01;;;;;;;9.50;3.37;;;;;;;;;;484442;28;1294;-69
2024/03/31 00:14:16;;;;;;;7.60;3.38;;;;;;;;;;484143;28;1098;-69
2024/03/31 00:14:32;;;;;;;6.17;3.10;;;;;;;;;;482926;28;1153;-70
2024/03/31 00:14:47;;;;;;;9.38;3.30;;;;;;;;;;482834;28;1103;-70
2024/03/31 00:15:03;;;;;;;12.23;3.90;;;;;;;;;;481277;28;1151;-69
2024/03/31 00:15:18;;;;;;;10.38;3.45;;;;;;;;;;480374;28;1232;-70
2024/03/31 00:15:33;;;;;;;9.17;3.17;;;;;;;;;;480848;28;1199;-69
2024/03/31 00:15:49;;;;;;;8.43;3.20;;;;;;;;;;479189;28;1061;-69
2024/03/31 00:16:04;;;;;;;7.15;2.97;;;;;;;;;;480391;28;986;-70
2024/03/31 00:16:20;;;;;;;6.97;3.00;;;;;;;;;;479740;28;909;-69
2024/03/31 00:16:35;;;;;;;9.57;3.27;;;;;;;;;;480368;28;1316;-70
2024/03/31 00:16:50;;;;;;;11.13;3.40;;;;;;;;;;481062;28;958;-69
2024/03/31 00:17:06;;;;;;;12.53;3.60;;;;;;;;;;482416;28;1030;-69
2024/03/31 00:17:21;;;;;;;13.33;3.50;;;;;;;;;;483282;28;1065;-69
2024/03/31 00:17:37;;;;;;;10.70;3.50;;;;;;;;;;486332;28;1210;-69
2024/03/31 00:17:52;;;;;;;13.05;3.50;;;;;;;;;;486421;28;1317;-69
2024/03/31 00:18:08;;;;;;;12.67;3.40;;;;;;;;;;485799;28;1068;-69
2024/03/31 00:18:23;;;;;;;8.30;3.30;;;;;;;;;;485702;28;1016;-70
2024/03/31 00:18:38;;;;;;;10.60;3.33;;;;;;;;;;486700;28;1100;-69
2024/03/31 00:18:54;;;;;;;8.67;3.17;;;;;;;;;;484866;28;1266;-69
2024/03/31 00:19:09;;;;;;;6.10;3.00;;;;;;;;;;483187;28;1052;-69
2024/03/31 00:19:24;;;;;;;8.07;3.17;;;;;;;;;;484267;28;1174;-69
2024/03/31 00:19:40;;;;;;;10.37;3.40;;;;;;;;;;485048;28;1027;-69
2024/03/31 00:19:55;;;;;;;9.47;3.23;;;;;;;;;;481061;28;1060;-69
2024/03/31 00:20:10;;;;;;;7.30;3.07;;;;;;;;;;481368;28;1263;-69
2024/03/31 00:20:26;;;;;;;9.23;3.30;;;;;;;;;;480764;28;979;-69
2024/03/31 00:20:41;;;;;;;9.43;3.37;;;;;;;;;;478013;28;1180;-69
2024/03/31 00:21:01;;;;;;;8.70;3.72;;;;;;;;;;480141;28;1032;-69
2024/03/31 00:21:16;;;;;;;9.38;3.63;;;;;;;;;;480594;28;1122;-70
2024/03/31 00:21:32;;;;;;;9.33;3.37;;;;;;;;;;482051;28;909;-69
2024/03/31 00:21:47;;;;;;;10.77;3.60;;;;;;;;;;483824;28;1099;-70
2024/03/31 00:22:03;;;;;;;11.48;3.70;;;;;;;;;;483128;28;1413;-70
2024/03/31 00:22:18;;;;;;;12.43;3.70;;;;;;;;;;484380;28;929;-69
2024/03/31 00:22:33;;;;;;;12.50;3.47;;;;;;;;;;484153;28;932;-69
2024/03/31 00:22:49;;;;;;;10.03;3.20;;;;;;;;;;484386;28;1146;-69
2024/03/31 00:23:04;;;;;;;10.07;3.17;;;;;;;;;;485409;28;1132;-69
2024/03/31 00:23:21;;;;;;;10.57;3.37;;;;;;;;;;484364;28;1545;-70
2024/03/31 00:23:36;;;;;;;8.80;3.38;;;;;;;;;;483922;28;1061;-69
2024/03/31 00:23:52;;;;;;;9.10;3.33;;;;;;;;;;483714;28;1579;-69
2024/03/31 00:24:08;;;;;;;10.48;3.35;;;;;;;;;;482935;28;895;-70
2024/03/31 00:24:23;;;;;;;9.05;3.38;;;;;;;;;;484639;28;1270;-69
2024/03/31 00:24:41;;;;;;;9.50;3.27;;;;;;;;;;484518;28;1094;-69
2024/03/31 00:24:56;;;;;;;11.65;3.30;;;;;;;;;;484540;28;920;-69
2024/03/31 00:25:11;;;;;;;11.77;3.37;;;;;;;;;;482535;28;1024;-69
2024/03/31 00:25:27;;;;;;;11.03;3.43;;;;;;;;;;484658;28;1092;-69
2024/03/31 00:25:42;;;;;;;10.82;3.65;;;;;;;;;;483302;28;1320;-69
2024/03/31 00:25:58;;;;;;;11.07;3.40;;;;;;;;;;481885;28;1135;-69
2024/03/31 00:26:14;;;;;;;12.60;3.13;;;;;;;;;;482828;28;1059;-69
2024/03/31 00:26:34;;;;;;;10.07;3.15;;;;;;;;;;482541;28;941;-69
2024/03/31 00:26:49;;;;;;;8.25;3.10;;;;;;;;;;481885;28;1054;-69
2024/03/31 00:27:04;;;;;;;8.73;3.47;;;;;;;;;;482622;28;1390;-69
2024/03/31 00:27:20;;;;;;;9.80;3.53;;;;;;;;;;480682;28;1291;-70
2024/03/31 00:27:35;;;;;;;9.65;3.28;;;;;;;;;;482091;28;1257;-69
2024/03/31 00:27:50;;;;;;;10.07;3.33;;;;;;;;;;481505;28;2003;-70
2024/03/31 00:28:06;;;;;;;9.37;3.23;;;;;;;;;;484042;28;1171;-70
2024/03/31 00:28:21;;;;;;;7.63;2.90;;;;;;;;;;483217;28;1377;-70
2024/03/31 00:28:36;;;;;;;9.03;2.93;;;;;;;;;;483377;28;887;-70
2024/03/31 00:28:52;;;;;;;9.63;3.10;;;;;;;;;;481222;28;1354;-70
2024/03/31 00:29:07;;;;;;;7.80;3.08;;;;;;;;;;483396;28;914;-70
2024/03/31 00:29:23;;;;;;;7.47;3.20;;;;;;;;;;483793;28;1120;-70
2024/03/31 00:29:38;;;;;;;9.73;3.22;;;;;;;;;;484104;28;992;-70
2024/03/31 00:29:55;;;;;;;10.13;3.10;;;;;;;;;;485763;28;963;-70
2024/03/31 00:30:10;;;;;;;8.38;2.80;;;;;;;;;;486489;28;1096;-70
2024/03/31 00:30:25;;;;;;;8.37;2.93;;;;;;;;;;484421;28;1068;-70
2024/03/31 00:30:41;;;;;;;9.37;3.23;;;;;;;;;;482443;28;1147;-70
2024/03/31 00:30:57;;;;;;;8.75;3.05;;;;;;;;;;484328;28;913;-70
2024/03/31 00:31:12;;;;;;;8.43;2.90;;;;;;;;;;483265;28;957;-69
2024/03/31 00:31:28;;;;;;;8.27;2.93;;;;;;;;;;486278;28;1199;-70
2024/03/31 00:31:44;;;;;;;7.63;2.80;;;;;;;;;;487689;28;1132;-71
2024/03/31 00:31:59;;;;;;;7.05;2.65;;;;;;;;;;485605;28;1142;-69
2024/03/31 00:32:15;;;;;;;9.50;2.97;;;;;;;;;;486337;28;1270;-70
2024/03/31 00:32:30;;;;;;;9.90;3.30;;;;;;;;;;483381;28;1056;-70
2024/03/31 00:32:45;;;;;;;8.37;3.20;;;;;;;;;;483182;28;1057;-70
2024/03/31 00:33:01;;;;;;;9.60;3.10;;;;;;;;;;481365;28;1295;-69
2024/03/31 00:33:16;;;;;;;11.48;3.20;;;;;;;;;;480632;28;1191;-69
2024/03/31 00:33:31;;;;;;;10.43;3.13;;;;;;;;;;479026;28;1233;-69
2024/03/31 00:33:49;;;;;;;9.77;2.87;;;;;;;;;;479826;28;1238;-69
2024/03/31 00:34:05;;;;;;;10.20;3.13;;;;;;;;;;478466;28;1136;-70
2024/03/31 00:34:23;;;;;;;7.57;3.00;;;;;;;;;;477693;28;1403;-70
2024/03/31 00:34:38;;;;;;;8.98;2.92;;;;;;;;;;479242;28;1021;-70
2024/03/31 00:34:54;;;;;;;10.97;3.20;;;;;;;;;;480174;28;1281;-70
2024/03/31 00:35:09;;;;;;;9.43;3.10;;;;;;;;;;481594;28;1061;-69
2024/03/31 00:35:24;;;;;;;8.60;2.80;;;;;;;;;;480125;28;1226;-70
2024/03/31 00:35:40;;;;;;;8.90;2.70;;;;;;;;;;480384;28;1153;-69
2024/03/31 00:35:57;;;;;;;9.83;2.83;;;;;;;;;;480248;28;1328;-69
2024/03/31 00:36:13;;;;;;;7.78;2.72;;;;;;;;;;482187;28;1112;-70
2024/03/31 00:36:28;;;;;;;7.78;2.85;;;;;;;;;;481524;28;1293;-70
2024/03/31 00:36:44;;;;;;;10.63;3.20;;;;;;;;;;481748;28;1022;-70
2024/03/31 00:36:59;;;;;;;10.80;2.85;;;;;;;;;;481497;28;1180;-70
2024/03/31 00:37:15;;;;;;;11.30;3.23;;;;;;;;;;484855;28;938;-70
2024/03/31 00:37:30;;;;;;;10.73;3.58;;;;;;;;;;485602;28;996;-69
2024/03/31 00:37:46;;;;;;;9.87;3.50;;;;;;;;;;483005;28;1028;-69
2024/03/31 00:38:01;;;;;;;9.75;3.50;;;;;;;;;;483412;28;1147;-70
2024/03/31 00:38:16;;;;;;;10.10;3.13;;;;;;;;;;486103;28;1021;-70
2024/03/31 00:38:31;;;;;;;9.93;3.30;;;;;;;;;;485202;28;850;-69
2024/03/31 00:38:47;;;;;;;9.40;3.40;;;;;;;;;;481604;28;1079;-70
2024/03/31 00:39:02;;;;;;;8.20;3.20;;;;;;;;;;482310;28;972;-69
2024/03/31 00:39:17;;;;;;;7.67;3.10;;;;;;;;;;480626;28;1237;-70
2024/03/31 00:39:33;;;;;;;10.18;3.25;;;;;;;;;;481993;28;968;-70
2024/03/31 00:39:49;;;;;;;10.03;3.50;;;;;;;;;;481831;28;1222;-69
2024/03/31 00:40:05;;;;;;;9.57;3.50;;;;;;;;;;484089;28;1179;-71
2024/03/31 00:40:20;;;;;;;9.23;3.47;;;;;;;;;;484453;28;1090;-69
2024/03/31 00:40:36;;;;;;;8.83;3.33;;;;;;;;;;483161;28;1130;-70
2024/03/31 00:40:52;;;;;;;9.30;3.25;;;;;;;;;;483210;28;929;-69
2024/03/31 00:41:07;;;;;;;9.77;3.58;;;;;;;;;;483785;28;914;-70
2024/03/31 00:41:22;;;;;;;10.97;3.60;;;;;;;;;;482932;28;1163;-70
2024/03/31 00:41:37;;;;;;;9.30;3.30;;;;;;;;;;483579;28;1222;-70
2024/03/31 00:41:54;;;;;;;9.93;3.33;;;;;;;;;;483868;28;946;-69
2024/03/31 00:42:10;;;;;;;9.20;3.05;;;;;;;;;;484090;28;937;-70
2024/03/31 00:42:25;;;;;;;9.02;3.10;;;;;;;;;;483630;28;1306;-69
2024/03/31 00:42:40;;;;;;;10.00;3.27;;;;;;;;;;486440;28;1029;-70
2024/03/31 00:42:56;;;;;;;8.43;3.27;;;;;;;;;;486441;28;1278;-69
2024/03/31 00:43:12;;;;;;;8.20;3.15;;;;;;;;;;485820;28;922;-70
2024/03/31 00:43:28;;;;;;;8.25;3.22;;;;;;;;;;486375;28;957;-70
2024/03/31 00:43:43;;;;;;;8.73;3.17;;;;;;;;;;485722;28;1065;-69
2024/03/31 00:43:59;;;;;;;8.07;3.13;;;;;;;;;;485171;28;1427;-70
2024/03/31 00:44:15;;;;;;;7.82;3.40;;;;;;;;;;484773;28;1160;-70
2024/03/31 00:44:30;;;;;;;9.17;3.30;;;;;;;;;;481961;28;1176;-69
2024/03/31 00:44:46;;;;;;;9.57;3.17;;;;;;;;;;482989;28;1026;-70
2024/03/31 00:45:01;;;;;;;10.52;3.40;;;;;;;;;;482059;28;1311;-69
2024/03/31 00:45:17;;;;;;;13.07;3.55;;;;;;;;;;483355;28;1030;-69
2024/03/31 00:45:32;;;;;;;12.23;3.63;;;;;;;;;;482567;28;1104;-69
2024/03/31 00:45:47;;;;;;;10.17;3.50;;;;;;;;;;481931;28;1253;-69
2024/03/31 00:46:03;;;;;;;10.63;3.17;;;;;;;;;;483579;28;1004;-70
2024/03/31 00:46:18;;;;;;;10.20;3.10;;;;;;;;;;485270;28;1088;-69
2024/03/31 00:46:33;;;;;;;10.63;3.30;;;;;;;;;;486430;28;905;-69
2024/03/31 00:46:49;;;;;;;13.00;3.35;;;;;;;;;;486159;28;973;-70
2024/03/31 00:47:04;;;;;;;11.50;3.20;;;;;;;;;;485581;28;923;-69
2024/03/31 00:47:19;;;;;;;9.87;2.90;;;;;;;;;;485792;28;936;-70
2024/03/31 00:47:35;;;;;;;9.55;2.70;;;;;;;;;;483945;28;1239;-70
2024/03/31 00:47:50;;;;;;;8.27;2.80;;;;;;;;;;486349;28;1954;-70
2024/03/31 00:48:07;;;;;;;8.50;2.87;;;;;;;;;;486082;28;1055;-69
2024/03/31 00:48:22;;;;;;;8.93;3.20;;;;;;;;;;485342;28;1317;-69
2024/03/31 00:48:37;;;;;;;9.63;3.20;;;;;;;;;;483494;28;890;-70
2024/03/31 00:48:53;;;;;;;8.33;2.90;;;;;;;;;;483128;28;1042;-70
2024/03/31 00:49:08;;;;;;;7.07;3.00;;;;;;;;;;483562;28;964;-70
2024/03/31 00:49:23;;;;;;;9.13;3.10;;;;;;;;;;483202;28;1311;-70
2024/03/31 00:49:39;;;;;;;10.37;3.00;;;;;;;;;;483836;28;969;-70
2024/03/31 00:49:54;;;;;;;14.05;3.20;;;;;;;;;;483820;28;1139;-69
2024/03/31 00:50:09;;;;;;;12.93;3.10;;;;;;;;;;484353;28;1202;-70
2024/03/31 00:50:24;;;;;;;7.73;2.90;;;;;;;;;;486291;28;944;-70
2024/03/31 00:50:40;;;;;;;8.77;2.88;;;;;;;;;;484452;28;1136;-70
2024/03/31 00:50:55;;;;;;;9.77;2.93;;;;;;;;;;484775;28;1049;-70
2024/03/31 00:51:10;;;;;;;8.93;3.00;;;;;;;;;;483972;28;1054;-69
2024/03/31 00:51:26;;;;;;;7.50;2.95;;;;;;;;;;484023;28;937;-70
2024/03/31 00:51:41;;;;;;;9.13;3.10;;;;;;;;;;483028;28;1178;-70
2024/03/31 00:51:57;;;;;;;10.85;3.17;;;;;;;;;;482427;28;1424;-70
2024/03/31 00:52:12;;;;;;;10.43;3.10;;;;;;;;;;482243;28;1299;-70
2024/03/31 00:52:27;;;;;;;9.40;3.00;;;;;;;;;;480341;28;1386;-70
2024/03/31 00:52:42;;;;;;;7.43;2.70;;;;;;;;;;483966;28;957;-70
2024/03/31 00:52:59;;;;;;;5.43;2.60;;;;;;;;;;481923;28;1370;-69
2024/03/31 00:53:14;;;;;;;6.20;2.80;;;;;;;;;;482434;28;1230;-69
2024/03/31 00:53:29;;;;;;;7.60;2.87;;;;;;;;;;479939;28;1296;-70
2024/03/31 00:53:45;;;;;;;7.13;2.80;;;;;;;;;;480629;28;1335;-69
2024/03/31 00:54:00;;;;;;;7.03;2.60;;;;;;;;;;478271;28;1666;-70
2024/03/31 00:54:15;;;;;;;8.40;2.60;;;;;;;;;;479882;28;1374;-70
2024/03/31 00:54:31;;;;;;;7.97;2.70;;;;;;;;;;476797;28;1097;-69
2024/03/31 00:54:47;;;;;;;8.75;3.00;;;;;;;;;;477611;28;916;-70
2024/03/31 00:55:02;;;;;;;9.90;3.30;;;;;;;;;;479492;28;1085;-70
2024/03/31 00:55:17;;;;;;;10.70;3.27;;;;;;;;;;479702;28;1247;-69
2024/03/31 00:55:33;;;;;;;11.23;3.28;;;;;;;;;;478770;28;1410;-70
2024/03/31 00:55:48;;;;;;;10.43;3.20;;;;;;;;;;478733;28;846;-70
2024/03/31 00:56:03;;;;;;;8.60;2.90;;;;;;;;;;481523;28;1123;-70
2024/03/31 00:56:19;;;;;;;7.68;2.90;;;;;;;;;;481606;28;1294;-69
2024/03/31 00:56:34;;;;;;;9.13;2.97;;;;;;;;;;481670;28;1027;-70
2024/03/31 00:56:49;;;;;;;11.47;3.00;;;;;;;;;;480407;28;1127;-69
2024/03/31 00:57:05;;;;;;;12.45;3.33;;;;;;;;;;479241;28;1286;-70
2024/03/31 00:57:20;;;;;;;11.93;3.50;;;;;;;;;;478176;28;1355;-70
2024/03/31 00:57:35;;;;;;;12.40;3.30;;;;;;;;;;477978;28;969;-70
2024/03/31 00:57:51;;;;;;;9.13;2.92;;;;;;;;;;479514;28;1225;-70
2024/03/31 00:58:06;;;;;;;7.87;2.77;;;;;;;;;;476154;28;1331;-70
2024/03/31 00:58:21;;;;;;;10.37;3.00;;;;;;;;;;477210;28;937;-70
2024/03/31 00:58:37;;;;;;;11.55;3.28;;;;;;;;;;478238;28;1012;-69
2024/03/31 00:58:52;;;;;;;11.33;3.20;;;;;;;;;;480393;28;1140;-70
2024/03/31 00:59:08;;;;;;;9.73;2.92;;;;;;;;;;484002;28;1208;-70
2024/03/31 00:59:23;;;;;;;9.27;3.07;;;;;;;;;;482666;28;1167;-70
2024/03/31 00:59:38;;;;;;;10.23;3.20;;;;;;;;;;482463;28;1202;-70
2024/03/31 00:59:54;;;;;;;12.23;3.00;;;;;;;;;;482694;28;1287;-70
2024/03/31 01:00:09;;;;;;;9.83;2.80;;;;;;;;;;484214;28;1370;-70
2024/03/31 01:00:25;;;;;;;7.30;2.70;;;;;;;;;;483557;28;1023;-70
2024/03/31 01:00:40;;;;;;;6.28;2.38;;;;;;;;;;484864;28;950;-70
2024/03/31 01:00:56;;;;;;;6.80;2.30;;;;;;;;;;482259;28;1171;-70
2024/03/31 01:01:11;;;;;;;6.03;2.20;;;;;;;;;;482119;28;976;-70
2024/03/31 01:01:27;;;;;;;4.90;2.13;;;;;;;;;;480556;28;1189;-70
2024/03/31 01:01:42;;;;;;;5.07;2.30;;;;;;;;;;481373;28;957;-70
2024/03/31 01:01:57;;;;;;;5.40;2.20;;;;;;;;;;484669;28;1045;-69
2024/03/31 01:02:12;;;;;;;6.53;2.47;;;;;;;;;;484532;28;1185;-70
2024/03/31 01:02:28;;;;;;;7.40;2.50;;;;;;;;;;483895;28;1172;-69
2024/03/31 01:02:43;;;;;;;6.93;2.37;;;;;;;;;;484368;28;1016;-70
2024/03/31 01:02:58;;;;;;;5.90;2.30;;;;;;;;;;486602;28;1248;-70
2024/03/31 01:03:33;;;;;;;7.15;2.50;;;;;;;;;;486256;28;1000;-70
2024/03/31 01:03:48;;;;;;;5.65;2.30;;;;;;;;;;484911;28;986;-69
2024/03/31 01:04:03;;;;;;;6.77;2.30;;;;;;;;;;484099;28;1214;-70
2024/03/31 01:04:18;;;;;;;7.40;2.40;;;;;;;;;;483681;28;1175;-69
2024/03/31 01:04:34;;;;;;;6.55;2.40;;;;;;;;;;483181;28;1021;-69
2024/03/31 01:04:49;;;;;;;6.47;2.37;;;;;;;;;;482658;28;1408;-69
2024/03/31 01:05:04;;;;;;;6.23;2.50;;;;;;;;;;482643;28;929;-69
2024/03/31 01:05:19;;;;;;;6.28;2.50;;;;;;;;;;480789;28;1064;-69
2024/03/31 01:05:35;;;;;;;5.40;2.60;;;;;;;;;;479241;28;1327;-69
2024/03/31 01:05:50;;;;;;;7.00;2.80;;;;;;;;;;480545;28;1096;-69
2024/03/31 01:06:11;;;;;;;8.67;2.80;;;;;;;;;;482307;28;1016;-69
2024/03/31 01:06:27;;;;;;;7.07;2.50;;;;;;;;;;482444;28;1074;-69
2024/03/31 01:06:42;;;;;;;6.73;2.57;;;;;;;;;;482878;28;1062;-69
2024/03/31 01:06:57;;;;;;;7.07;2.50;;;;;;;;;;482264;28;1181;-69
2024/03/31 01:07:12;;;;;;;6.72;2.30;;;;;;;;;;483608;28;1112;-69
2024/03/31 01:07:28;;;;;;;6.00;2.30;;;;;;;;;;483244;28;1155;-69
2024/03/31 01:07:43;;;;;;;5.27;2.27;;;;;;;;;;483250;28;1121;-69
2024/03/31 01:07:59;;;;;;;6.32;2.35;;;;;;;;;;481894;28;1974;-69
2024/03/31 01:08:14;;;;;;;7.20;2.53;;;;;;;;;;481474;28;1141;-69
2024/03/31 01:08:29;;;;;;;7.23;2.60;;;;;;;;;;481589;28;1093;-70
2024/03/31 01:08:47;;;;;;;7.85;2.63;;;;;;;;;;482342;28;933;-69
2024/03/31 01:09:03;;;;;;;9.27;2.97;;;;;;;;;;481318;28;1164;-69
2024/03/31 01:09:18;;;;;;;7.93;2.80;;;;;;;;;;483487;28;1386;-69
2024/03/31 01:09:34;;;;;;;6.22;2.60;;;;;;;;;;482871;28;1150;-70
2024/03/31 01:09:49;;;;;;;7.30;2.80;;;;;;;;;;483893;28;897;-69
2024/03/31 01:10:05;;;;;;;7.80;2.70;;;;;;;;;;483286;28;1060;-69
2024/03/31 01:10:21;;;;;;;7.23;2.73;;;;;;;;;;483902;28;849;-69
2024/03/31 01:10:36;;;;;;;7.63;2.63;;;;;;;;;;485795;28;901;-69
2024/03/31 01:10:52;;;;;;;9.33;2.63;;;;;;;;;;483152;28;1289;-69
2024/03/31 01:11:09;;;;;;;9.95;3.03;;;;;;;;;;485911;28;1287;-69
2024/03/31 01:11:29;;;;;;;9.40;3.20;;;;;;;;;;485384;27;1355;-69
2024/03/31 01:11:45;;;;;;;10.65;3.10;;;;;;;;;;486909;27;1097;-68
2024/03/31 01:12:00;;;;;;;12.15;3.33;;;;;;;;;;486165;28;1019;-69
2024/03/31 01:12:16;;;;;;;10.77;3.40;;;;;;;;;;484739;28;1164;-69
2024/03/31 01:12:32;;;;;;;8.97;3.10;;;;;;;;;;485407;28;1058;-69
2024/03/31 01:12:47;;;;;;;9.18;3.05;;;;;;;;;;483444;28;1108;-69
2024/03/31 01:13:03;;;;;;;9.17;3.10;;;;;;;;;;484551;28;1107;-69
2024/03/31 01:13:19;;;;;;;10.40;3.05;;;;;;;;;;482975;28;1326;-69
2024/03/31 01:13:35;;;;;;;9.50;2.90;;;;;;;;;;482308;28;1216;-69
2024/03/31 01:13:52;;;;;;;7.78;2.80;;;;;;;;;;482933;28;1179;-69
2024/03/31 01:14:08;;;;;;;7.82;2.88;;;;;;;;;;483036;28;988;-69
2024/03/31 01:14:24;;;;;;;8.73;2.95;;;;;;;;;;483301;28;1195;-69
2024/03/31 01:14:39;;;;;;;8.80;2.90;;;;;;;;;;482799;28;1016;-70
2024/03/31 01:14:56;;;;;;;10.30;2.97;;;;;;;;;;481363;28;1219;-69
2024/03/31 01:15:11;;;;;;;9.52;3.03;;;;;;;;;;483773;28;941;-69
2024/03/31 01:15:27;;;;;;;11.20;3.10;;;;;;;;;;482824;28;974;-69
2024/03/31 01:15:42;;;;;;;11.00;3.00;;;;;;;;;;483168;28;1084;-69
2024/03/31 01:15:59;;;;;;;10.60;2.90;;;;;;;;;;484514;28;969;-69
2024/03/31 01:16:14;;;;;;;12.15;3.10;;;;;;;;;;484866;28;1194;-69
2024/03/31 01:16:30;;;;;;;10.80;3.25;;;;;;;;;;482299;28;1029;-69
2024/03/31 01:16:45;;;;;;;10.67;3.50;;;;;;;;;;483104;28;1174;-70
2024/03/31 01:17:00;;;;;;;9.57;3.33;;;;;;;;;;483007;28;1199;-69
2024/03/31 01:17:16;;;;;;;9.45;3.20;;;;;;;;;;482917;28;1075;-69
2024/03/31 01:17:31;;;;;;;10.40;3.30;;;;;;;;;;483718;28;1025;-70
2024/03/31 01:17:47;;;;;;;8.75;3.10;;;;;;;;;;483932;28;929;-69
2024/03/31 01:18:03;;;;;;;8.00;3.05;;;;;;;;;;483966;28;881;-69
2024/03/31 01:18:19;;;;;;;8.05;2.90;;;;;;;;;;483590;28;1365;-69
2024/03/31 01:18:34;;;;;;;7.70;3.00;;;;;;;;;;483021;28;1012;-69
2024/03/31 01:18:50;;;;;;;9.75;3.38;;;;;;;;;;483167;28;1195;-69
2024/03/31 01:19:05;;;;;;;9.30;3.17;;;;;;;;;;482753;28;854;-69
2024/03/31 01:19:20;;;;;;;8.27;2.90;;;;;;;;;;484106;28;1057;-69
2024/03/31 01:19:36;;;;;;;8.07;2.97;;;;;;;;;;484172;28;878;-69
2024/03/31 01:19:51;;;;;;;9.10;3.00;;;;;;;;;;482487;28;968;-69
2024/03/31 01:20:07;;;;;;;9.07;3.05;;;;;;;;;;482352;28;997;-69
2024/03/31 01:20:22;;;;;;;7.97;3.00;;;;;;;;;;482117;28;1269;-69
2024/03/31 01:20:38;;;;;;;8.38;3.15;;;;;;;;;;482364;28;973;-69
2024/03/31 01:20:53;;;;;;;9.57;3.40;;;;;;;;;;483894;28;1098;-70
2024/03/31 01:21:10;;;;;;;10.15;3.25;;;;;;;;;;482392;28;1242;-69
2024/03/31 01:21:28;;;;;;;9.80;3.22;;;;;;;;;;482750;28;981;-69
2024/03/31 01:21:44;;;;;;;8.50;3.33;;;;;;;;;;482412;28;1358;-69
2024/03/31 01:22:00;;;;;;;7.13;3.17;;;;;;;;;;482554;28;1133;-69
2024/03/31 01:22:15;;;;;;;9.25;3.30;;;;;;;;;;483153;28;1057;-69
2024/03/31 01:22:32;;;;;;;11.35;3.35;;;;;;;;;;482776;28;1085;-69
2024/03/31 01:22:48;;;;;;;9.60;3.38;;;;;;;;;;483366;28;989;-69
2024/03/31 01:23:06;;;;;;;9.13;3.50;;;;;;;;;;483130;28;1198;-69
2024/03/31 01:23:26;;;;;;;9.93;3.47;;;;;;;;;;484340;28;1283;-70
2024/03/31 01:23:59;;;;;;;10.23;3.30;;;;;;;;;;481839;28;1277;-69
2024/03/31 01:24:14;;;;;;;10.40;3.15;;;;;;;;;;481649;28;902;-69
2024/03/31 01:24:29;;;;;;;10.37;3.23;;;;;;;;;;482652;28;1555;-69
2024/03/31 01:24:45;;;;;;;10.50;3.40;;;;;;;;;;482696;28;921;-69
2024/03/31 01:25:01;;;;;;;10.87;3.30;;;;;;;;;;484025;28;1125;-69
2024/03/31 01:25:16;;;;;;;9.35;3.20;;;;;;;;;;482032;28;1328;-69
2024/03/31 01:25:35;;;;;;;7.97;3.28;;;;;;;;;;482705;28;972;-69
2024/03/31 01:25:51;;;;;;;9.98;3.40;;;;;;;;;;480219;28;918;-69
2024/03/31 01:26:06;;;;;;;10.43;3.30;;;;;;;;;;481288;28;1183;-69
2024/03/31 01:26:21;;;;;;;11.73;3.33;;;;;;;;;;481717;28;1138;-69
2024/03/31 01:26:37;;;;;;;10.40;3.30;;;;;;;;;;479573;28;1188;-69
2024/03/31 01:26:52;;;;;;;8.10;3.10;;;;;;;;;;479449;28;1290;-69
2024/03/31 01:27:07;;;;;;;8.88;3.30;;;;;;;;;;479884;28;929;-70
2024/03/31 01:27:23;;;;;;;9.63;3.50;;;;;;;;;;480317;28;1120;-69
2024/03/31 01:27:38;;;;;;;10.13;3.57;;;;;;;;;;479631;28;1418;-69
2024/03/31 01:27:53;;;;;;;10.43;3.45;;;;;;;;;;480594;28;1954;-69
2024/03/31 01:28:09;;;;;;;11.40;3.60;;;;;;;;;;482552;28;972;-69
2024/03/31 01:28:24;;;;;;;9.53;3.40;;;;;;;;;;483970;28;944;-69
2024/03/31 01:28:39;;;;;;;9.63;3.40;;;;;;;;;;484234;28;1085;-69
2024/03/31 01:28:55;;;;;;;9.77;3.60;;;;;;;;;;485160;28;1201;-69
2024/03/31 01:29:10;;;;;;;9.17;3.40;;;;;;;;;;485188;28;925;-69
2024/03/31 01:29:25;;;;;;;9.23;3.33;;;;;;;;;;487594;27;2249;-69
2024/03/31 01:29:41;;;;;;;7.50;3.17;;;;;;;;;;485665;28;1307;-69
2024/03/31 01:29:56;;;;;;;8.30;3.37;;;;;;;;;;485021;28;1222;-69
2024/03/31 01:30:11;;;;;;;8.60;3.50;;;;;;;;;;485811;28;1278;-69
2024/03/31 01:30:27;;;;;;;11.77;3.50;;;;;;;;;;484866;28;937;-69
2024/03/31 01:30:42;;;;;;;13.37;3.73;;;;;;;;;;485623;28;1402;-69
2024/03/31 01:30:57;;;;;;;12.00;3.60;;;;;;;;;;484698;28;1186;-69
2024/03/31 01:31:13;;;;;;;10.30;3.30;;;;;;;;;;484424;28;1080;-69
2024/03/31 01:31:28;;;;;;;8.40;3.20;;;;;;;;;;485143;28;969;-69
2024/03/31 01:31:44;;;;;;;9.02;3.00;;;;;;;;;;485279;28;1406;-69
2024/03/31 01:31:59;;;;;;;8.93;2.90;;;;;;;;;;483626;28;1389;-69
2024/03/31 01:32:15;;;;;;;7.93;3.08;;;;;;;;;;481845;28;956;-69
2024/03/31 01:32:30;;;;;;;7.90;3.20;;;;;;;;;;481507;28;1089;-69
2024/03/31 01:32:46;;;;;;;8.20;3.17;;;;;;;;;;480219;28;1197;-69
2024/03/31 01:33:01;;;;;;;10.40;3.20;;;;;;;;;;481647;28;1179;-69
2024/03/31 01:33:16;;;;;;;10.38;3.15;;;;;;;;;;481195;28;1136;-69
2024/03/31 01:33:32;;;;;;;8.77;3.00;;;;;;;;;;480394;28;1031;-70
2024/03/31 01:33:48;;;;;;;10.60;3.30;;;;;;;;;;481654;28;926;-69
2024/03/31 01:34:03;;;;;;;10.70;3.35;;;;;;;;;;483109;28;917;-70
2024/03/31 01:34:19;;;;;;;9.00;3.10;;;;;;;;;;481368;28;1072;-69
2024/03/31 01:34:35;;;;;;;8.93;3.10;;;;;;;;;;481765;28;1189;-69
2024/03/31 01:34:50;;;;;;;10.30;3.20;;;;;;;;;;480424;28;1071;-69
2024/03/31 01:35:06;;;;;;;9.30;3.13;;;;;;;;;;479794;28;1195;-70
2024/03/31 01:35:21;;;;;;;8.70;3.10;;;;;;;;;;481438;28;1186;-69
2024/03/31 01:35:36;;;;;;;9.07;3.43;;;;;;;;;;481601;28;1023;-69
2024/03/31 01:35:51;;;;;;;7.20;3.30;;;;;;;;;;480490;28;1323;-70
2024/03/31 01:36:07;;;;;;;7.53;3.23;;;;;;;;;;481756;28;1348;-70
2024/03/31 01:36:22;;;;;;;8.97;3.20;;;;;;;;;;482761;28;1082;-70
2024/03/31 01:36:37;;;;;;;9.90;3.17;;;;;;;;;;482359;28;928;-70
2024/03/31 01:36:53;;;;;;;11.67;3.33;;;;;;;;;;482139;28;870;-70
2024/03/31 01:37:08;;;;;;;12.30;3.50;;;;;;;;;;485365;28;917;-69
2024/03/31 01:37:23;;;;;;;10.27;3.50;;;;;;;;;;486449;28;902;-70